Time;durP1;ratioP1;P1;durP2;ratioP2;P2;SDS_P1;SDS_P2;PMS_P1;PMS_P2;Temp;Humidity;BMP_temperature;BMP_pressure;BME280_temperature;BME280_humidity;BME280_pressure;Samples;Min_cycle;Max_cycle;Signal;HPM_P1;HPM_P2
2022/08/01 00:00:00;;;;;;;2.90;1.40;;;15.90;67.60;;;;;;5036600;28;20216;-72
2022/08/01 00:02:28;;;;;;;3.10;1.20;;;16.00;66.50;;;;;;5029976;28;20545;-74
2022/08/01 00:04:56;;;;;;;1.33;1.20;;;16.10;66.60;;;;;;5039119;28;20196;-73
2022/08/01 00:07:23;;;;;;;3.00;1.53;;;16.20;65.30;;;;;;5032745;28;20271;-73
2022/08/01 00:09:50;;;;;;;2.70;1.40;;;16.30;65.50;;;;;;5027382;28;20196;-73
2022/08/01 00:12:18;;;;;;;3.60;1.10;;;16.40;65.20;;;;;;5024709;28;20243;-78
2022/08/01 00:14:45;;;;;;;4.77;1.10;;;16.50;65.00;;;;;;5031611;28;20346;-75
2022/08/01 00:17:13;;;;;;;4.87;1.20;;;16.70;64.10;;;;;;5029120;28;20208;-77
2022/08/01 00:19:40;;;;;;;11.63;1.30;;;16.80;63.60;;;;;;5034127;28;20185;-79
2022/08/01 00:22:07;;;;;;;3.60;1.23;;;17.00;64.00;;;;;;5035382;28;20245;-75
2022/08/01 00:24:35;;;;;;;3.83;1.80;;;16.90;62.40;;;;;;5052926;28;20172;-74
2022/08/01 00:27:02;;;;;;;1.37;1.27;;;16.90;62.00;;;;;;5033248;28;20216;-76
2022/08/01 00:29:30;;;;;;;2.87;1.10;;;16.90;62.10;;;;;;5031187;28;20216;-74
2022/08/01 00:31:57;;;;;;;2.93;1.53;;;17.10;61.70;;;;;;5031821;28;20237;-75
2022/08/01 00:34:24;;;;;;;2.87;1.50;;;17.10;61.50;;;;;;5032331;28;20177;-74
2022/08/01 00:36:51;;;;;;;1.47;1.03;;;17.10;60.60;;;;;;5043769;28;20174;-77
2022/08/01 00:39:19;;;;;;;3.20;0.97;;;17.30;60.70;;;;;;5046334;28;20228;-77
2022/08/01 00:41:46;;;;;;;1.23;1.00;;;17.40;60.60;;;;;;5037759;28;20672;-74
2022/08/01 00:44:13;;;;;;;1.60;1.07;;;17.50;59.80;;;;;;5039409;28;20188;-78
2022/08/01 00:46:41;;;;;;;1.60;1.00;;;17.60;59.00;;;;;;5044395;28;20183;-74
2022/08/01 00:49:08;;;;;;;0.80;0.80;;;17.70;58.90;;;;;;5052171;28;20178;-74
2022/08/01 00:51:36;;;;;;;0.90;0.80;;;17.70;58.80;;;;;;5032969;28;20181;-79
2022/08/01 00:54:03;;;;;;;1.87;0.90;;;17.70;58.50;;;;;;5040757;28;20187;-78
2022/08/01 00:56:31;;;;;;;4.33;0.73;;;17.90;57.80;;;;;;5029406;28;20237;-80
2022/08/01 00:58:58;;;;;;;2.43;2.10;;;17.80;57.30;;;;;;5029939;28;20900;-76
2022/08/01 01:01:26;;;;;;;2.60;2.30;;;18.00;57.30;;;;;;5028900;28;20680;-77
2022/08/01 01:03:54;;;;;;;0.80;0.70;;;18.10;55.60;;;;;;5042704;28;20254;-75
2022/08/01 01:06:42;;;;;;;1.60;0.60;;;18.20;54.40;;;;;;5032881;28;20275;-74
2022/08/01 01:09:33;;;;;;;0.70;0.70;;;18.20;53.30;;;;;;5033315;28;20187;-76
2022/08/01 01:12:37;;;;;;;1.80;1.10;;;18.30;52.90;;;;;;5030801;28;20181;-82
2022/08/01 01:15:16;;;;;;;1.67;0.80;;;18.40;53.20;;;;;;5045192;28;20270;-86
2022/08/01 01:18:00;;;;;;;1.13;0.90;;;18.50;53.50;;;;;;5036763;28;20233;-83
2022/08/01 01:20:42;;;;;;;3.60;0.80;;;18.80;52.00;;;;;;5052394;28;20290;-79
2022/08/01 01:23:22;;;;;;;1.57;0.87;;;18.80;52.40;;;;;;5048753;28;20640;-75
2022/08/01 01:26:05;;;;;;;4.13;0.77;;;19.00;52.00;;;;;;5025966;28;20188;-74
2022/08/01 01:29:29;;;;;;;0.87;0.60;;;18.90;50.80;;;;;;5045156;28;20249;-75
2022/08/01 01:32:06;;;;;;;1.37;0.50;;;19.00;51.50;;;;;;4985871;28;20265;-74
2022/08/01 01:34:43;;;;;;;1.90;1.10;;;18.90;51.20;;;;;;5022295;28;20197;-75
2022/08/01 01:37:19;;;;;;;1.03;0.70;;;19.00;50.90;;;;;;5034568;28;20530;-74
2022/08/01 01:39:50;;;;;;;0.53;0.53;;;19.20;51.00;;;;;;5032299;28;20233;-74
2022/08/01 01:42:19;;;;;;;0.60;0.60;;;19.30;50.80;;;;;;5032600;28;20252;-75
2022/08/01 01:44:48;;;;;;;1.63;0.80;;;19.30;49.90;;;;;;5018988;28;20204;-73
2022/08/01 01:47:17;;;;;;;2.07;0.70;;;19.30;50.90;;;;;;5028174;28;20184;-77
2022/08/01 01:49:50;;;;;;;2.00;0.60;;;19.50;49.60;;;;;;5035224;28;20523;-72
2022/08/01 01:52:19;;;;;;;1.37;0.60;;;19.40;50.10;;;;;;5034182;28;20249;-74
2022/08/01 01:54:52;;;;;;;3.60;2.50;;;19.40;51.00;;;;;;5021623;28;20550;-72
2022/08/01 01:57:20;;;;;;;2.27;1.10;;;19.50;49.80;;;;;;5030443;28;20177;-74
2022/08/01 01:59:50;;;;;;;1.03;0.70;;;19.50;49.80;;;;;;5030776;28;20246;-71
2022/08/01 02:02:19;;;;;;;1.30;0.60;;;19.70;48.90;;;;;;5033557;28;20216;-73
2022/08/01 02:04:48;;;;;;;4.27;0.80;;;19.90;49.40;;;;;;5037792;28;20188;-73
2022/08/01 02:07:25;;;;;;;1.00;0.70;;;20.30;48.70;;;;;;5035114;28;20184;-72
2022/08/01 02:09:54;;;;;;;3.17;0.93;;;20.40;47.80;;;;;;5029558;28;20219;-71
2022/08/01 02:12:22;;;;;;;2.00;0.70;;;20.10;49.40;;;;;;5031382;28;20278;-72
2022/08/01 02:14:53;;;;;;;2.63;0.90;;;20.10;48.00;;;;;;5037488;28;20176;-69
2022/08/01 02:17:22;;;;;;;0.83;0.60;;;20.30;48.30;;;;;;5032831;28;20195;-72
2022/08/01 02:19:50;;;;;;;1.80;0.80;;;20.30;46.10;;;;;;5036238;28;20179;-75
2022/08/01 02:22:42;;;;;;;4.23;0.93;;;20.60;46.60;;;;;;5038532;28;20184;-73
2022/08/01 02:25:24;;;;;;;1.53;0.80;;;20.60;46.60;;;;;;5028342;28;20181;-73
2022/08/01 02:28:06;;;;;;;1.23;0.70;;;20.40;46.80;;;;;;5035619;28;20329;-71
2022/08/01 02:30:39;;;;;;;1.07;0.90;;;20.10;47.60;;;;;;5033154;28;20185;-70
2022/08/01 02:33:31;;;;;;;1.20;0.90;;;19.70;49.10;;;;;;5037261;28;20208;-70
2022/08/01 02:36:01;;;;;;;1.03;0.80;;;19.10;50.50;;;;;;5039924;28;20194;-72
2022/08/01 02:38:31;;;;;;;1.10;0.70;;;18.90;51.50;;;;;;5035223;28;20583;-75
2022/08/01 02:41:02;;;;;;;1.17;0.80;;;19.50;49.70;;;;;;5035367;28;20208;-75
2022/08/01 02:43:34;;;;;;;1.53;1.00;;;20.10;48.70;;;;;;5036941;28;20515;-73
2022/08/01 02:46:04;;;;;;;2.77;0.90;;;20.30;47.20;;;;;;5037493;28;20258;-73
2022/08/01 02:48:35;;;;;;;1.90;0.80;;;20.50;46.80;;;;;;5033869;28;20194;-73
2022/08/01 02:51:04;;;;;;;4.27;0.80;;;20.70;44.00;;;;;;5027827;28;20196;-74
2022/08/01 02:53:36;;;;;;;2.03;0.97;;;20.60;44.80;;;;;;5037704;28;20576;-73
2022/08/01 02:56:06;;;;;;;0.97;0.60;;;20.90;43.40;;;;;;5032209;28;20662;-73
2022/08/01 02:58:37;;;;;;;3.23;1.07;;;21.10;43.40;;;;;;5033856;28;20677;-72
2022/08/01 03:01:06;;;;;;;1.47;0.80;;;20.90;44.40;;;;;;5032180;28;20542;-71
2022/08/01 03:03:35;;;;;;;1.10;0.70;;;21.50;41.30;;;;;;5036300;28;20645;-77
2022/08/01 03:06:03;;;;;;;3.40;0.63;;;21.50;39.70;;;;;;5032491;28;20197;-70
2022/08/01 03:08:32;;;;;;;1.27;0.63;;;21.10;37.90;;;;;;5039457;28;20237;-74
2022/08/01 03:11:01;;;;;;;1.43;0.80;;;21.00;38.30;;;;;;5031290;28;20222;-74
2022/08/01 03:13:31;;;;;;;2.70;0.80;;;20.80;39.40;;;;;;5033715;28;20226;-72
2022/08/01 03:16:00;;;;;;;1.67;0.70;;;20.30;39.80;;;;;;5032789;28;20229;-75
2022/08/01 03:18:29;;;;;;;1.83;0.57;;;20.00;39.70;;;;;;5030967;28;20188;-75
2022/08/01 03:20:58;;;;;;;1.63;0.70;;;19.50;40.90;;;;;;5036094;28;20577;-72
2022/08/01 03:23:26;;;;;;;0.80;0.80;;;19.40;41.10;;;;;;5034191;28;20195;-76
2022/08/01 03:25:54;;;;;;;2.43;0.60;;;19.20;41.40;;;;;;5035140;28;20279;-71
2022/08/01 03:28:23;;;;;;;1.03;0.77;;;19.00;42.00;;;;;;5035583;28;20185;-71
2022/08/01 03:30:51;;;;;;;3.30;1.17;;;19.00;42.70;;;;;;5035416;28;20181;-71
2022/08/01 03:33:19;;;;;;;1.80;1.17;;;18.90;42.20;;;;;;5037534;28;20536;-71
2022/08/01 03:35:53;;;;;;;1.97;0.80;;;19.10;41.40;;;;;;5032769;28;20649;-72
2022/08/01 03:38:26;;;;;;;3.67;0.70;;;19.30;40.60;;;;;;5032068;28;20342;-72
2022/08/01 03:41:12;;;;;;;2.57;0.80;;;19.30;41.00;;;;;;5033158;28;20263;-72
2022/08/01 03:43:47;;;;;;;2.23;0.93;;;19.40;40.60;;;;;;5032880;28;20172;-78
2022/08/01 03:46:50;;;;;;;0.97;0.77;;;19.60;39.70;;;;;;5034821;28;20199;-72
2022/08/01 03:49:29;;;;;;;1.50;1.00;;;20.20;39.20;;;;;;5029334;28;20656;-74
2022/08/01 03:51:57;;;;;;;1.50;0.57;;;20.30;38.30;;;;;;5029687;28;20172;-72
2022/08/01 03:54:33;;;;;;;2.13;0.70;;;20.60;37.30;;;;;;5025242;28;20181;-72
2022/08/01 03:57:02;;;;;;;0.77;0.57;;;21.00;36.10;;;;;;5029885;28;20180;-74
2022/08/01 03:59:31;;;;;;;0.57;0.53;;;21.40;33.90;;;;;;5039494;28;20176;-73
2022/08/01 04:01:59;;;;;;;0.97;0.60;;;21.60;33.10;;;;;;5031543;28;20208;-71
2022/08/01 04:04:28;;;;;;;1.37;0.50;;;21.70;32.90;;;;;;5037224;28;20176;-72
2022/08/01 04:06:55;;;;;;;3.07;0.70;;;21.90;32.40;;;;;;5033028;28;20243;-74
2022/08/01 04:09:23;;;;;;;1.07;0.50;;;22.00;31.80;;;;;;5033756;28;20654;-74
2022/08/01 04:11:50;;;;;;;1.73;0.60;;;22.20;31.30;;;;;;5033861;28;20211;-75
2022/08/01 04:14:18;;;;;;;0.53;0.53;;;21.70;32.70;;;;;;5034462;28;20636;-79
2022/08/01 04:16:45;;;;;;;1.80;0.70;;;21.80;32.00;;;;;;5050162;28;20176;-74
2022/08/01 04:19:12;;;;;;;1.40;0.63;;;22.00;31.20;;;;;;5052321;28;20188;-76
2022/08/01 04:21:40;;;;;;;1.10;0.60;;;22.00;31.70;;;;;;5030184;28;20204;-73
2022/08/01 04:24:16;;;;;;;1.70;0.77;;;21.30;32.10;;;;;;5045990;28;20672;-76
2022/08/01 04:26:46;;;;;;;1.50;0.60;;;21.00;31.90;;;;;;5046187;28;20173;-75
2022/08/01 04:29:17;;;;;;;0.77;0.50;;;21.10;32.30;;;;;;5035557;28;20183;-77
2022/08/01 04:31:48;;;;;;;1.27;0.60;;;21.70;30.50;;;;;;5039520;28;20263;-79
2022/08/01 04:34:20;;;;;;;1.73;0.50;;;21.90;29.40;;;;;;5052947;28;20266;-71
2022/08/01 04:36:49;;;;;;;1.67;0.47;;;22.40;28.70;;;;;;5052011;28;20545;-73
2022/08/01 04:39:19;;;;;;;0.77;0.53;;;22.80;28.40;;;;;;5029288;28;20225;-74
2022/08/01 04:41:51;;;;;;;0.63;0.50;;;22.90;28.80;;;;;;5033239;28;20232;-73
2022/08/01 04:44:18;;;;;;;0.50;0.50;;;23.00;27.60;;;;;;5035934;28;20904;-73
2022/08/01 04:46:48;;;;;;;1.40;0.60;;;22.90;27.50;;;;;;5038571;28;20183;-75
2022/08/01 04:49:16;;;;;;;5.47;0.70;;;23.20;26.90;;;;;;5049176;28;20180;-74
2022/08/01 04:52:03;;;;;;;1.20;0.50;;;23.20;27.20;;;;;;5043294;28;20191;-73
2022/08/01 04:54:33;;;;;;;3.20;0.70;;;23.70;26.50;;;;;;5031790;28;20533;-72
2022/08/01 04:57:01;;;;;;;1.07;0.37;;;23.50;27.40;;;;;;5051698;28;20179;-74
2022/08/01 04:59:41;;;;;;;0.93;0.50;;;23.10;26.80;;;;;;5051504;28;20652;-75
2022/08/01 05:02:10;;;;;;;1.63;0.63;;;23.10;26.30;;;;;;5034061;28;20190;-71
2022/08/01 05:04:39;;;;;;;0.83;0.40;;;24.00;26.20;;;;;;5032888;28;20655;-76
2022/08/01 05:07:07;;;;;;;5.17;0.60;;;23.60;25.40;;;;;;5039496;28;20185;-72
2022/08/01 05:09:38;;;;;;;1.23;0.50;;;23.10;26.40;;;;;;5028833;28;20214;-74
2022/08/01 05:12:06;;;;;;;3.07;0.60;;;23.30;26.50;;;;;;5042982;28;20187;-74
2022/08/01 05:14:35;;;;;;;0.80;0.40;;;23.90;25.90;;;;;;5037767;28;20176;-71
2022/08/01 05:17:04;;;;;;;0.40;0.40;;;23.70;26.10;;;;;;5044322;28;20173;-72
2022/08/01 05:19:36;;;;;;;1.30;0.50;;;23.80;26.10;;;;;;5043842;28;20180;-74
2022/08/01 05:22:08;;;;;;;0.43;0.40;;;23.60;26.30;;;;;;5025982;28;20214;-75
2022/08/01 05:24:37;;;;;;;1.13;0.40;;;23.40;26.40;;;;;;5037760;28;20281;-73
2022/08/01 05:27:07;;;;;;;0.70;0.50;;;23.50;26.60;;;;;;5048582;28;20176;-72
2022/08/01 05:29:35;;;;;;;2.83;0.60;;;23.60;26.70;;;;;;5052315;28;20172;-75
2022/08/01 05:32:03;;;;;;;1.00;0.70;;;23.70;26.40;;;;;;5049111;28;20237;-72
2022/08/01 05:34:30;;;;;;;0.93;0.43;;;23.70;26.30;;;;;;5047855;28;20190;-76
2022/08/01 05:36:57;;;;;;;1.73;0.73;;;23.80;26.60;;;;;;5030761;28;20175;-77
2022/08/01 05:39:25;;;;;;;1.53;0.70;;;24.30;26.10;;;;;;5053822;28;20216;-80
2022/08/01 05:41:52;;;;;;;1.33;0.40;;;24.80;25.40;;;;;;5043110;28;20678;-71
2022/08/01 05:44:19;;;;;;;1.57;0.57;;;23.70;25.00;;;;;;5024652;28;20181;-72
2022/08/01 05:46:47;;;;;;;1.53;0.50;;;23.80;26.00;;;;;;5033851;28;20650;-76
2022/08/01 05:49:14;;;;;;;0.50;0.50;;;24.30;25.50;;;;;;5052911;28;20168;-73
2022/08/01 05:51:42;;;;;;;1.20;0.50;;;24.00;25.40;;;;;;5034252;28;20181;-73
2022/08/01 05:54:10;;;;;;;0.40;0.40;;;24.20;25.20;;;;;;5027984;28;20210;-76
2022/08/01 05:56:38;;;;;;;2.60;0.57;;;24.30;26.00;;;;;;5055284;28;20199;-75
2022/08/01 05:59:05;;;;;;;2.57;0.50;;;24.30;24.90;;;;;;5055635;28;20170;-73
2022/08/01 06:01:33;;;;;;;1.73;0.47;;;23.80;25.10;;;;;;5026637;28;20223;-77
2022/08/01 06:04:00;;;;;;;2.10;0.63;;;23.50;25.70;;;;;;5038874;28;20645;-76
2022/08/01 06:06:27;;;;;;;1.83;0.70;;;23.50;25.30;;;;;;5055609;28;20172;-77
2022/08/01 06:08:55;;;;;;;1.77;0.87;;;23.30;25.50;;;;;;5054628;28;20176;-77
2022/08/01 06:11:22;;;;;;;1.33;0.53;;;23.40;25.10;;;;;;5035175;28;20196;-78
2022/08/01 06:13:49;;;;;;;2.97;0.53;;;23.00;25.50;;;;;;5029252;28;20203;-72
2022/08/01 06:16:17;;;;;;;2.37;0.53;;;22.40;26.10;;;;;;5029473;28;20224;-77
2022/08/01 06:18:45;;;;;;;0.70;0.50;;;21.70;27.60;;;;;;5036293;28;20653;-77
2022/08/01 06:21:12;;;;;;;0.90;0.70;;;20.70;28.10;;;;;;5048440;28;20208;-76
2022/08/01 06:23:41;;;;;;;0.80;0.50;;;20.20;29.00;;;;;;5050903;28;20172;-77
2022/08/01 06:26:09;;;;;;;1.47;0.90;;;19.90;29.20;;;;;;5054683;28;20226;-77
2022/08/01 06:28:37;;;;;;;3.40;0.87;;;19.70;30.50;;;;;;5044863;28;20184;-72
2022/08/01 06:31:04;;;;;;;2.60;0.83;;;19.60;30.70;;;;;;5052432;28;20274;-77
2022/08/01 06:33:32;;;;;;;2.33;1.10;;;19.30;30.80;;;;;;5052157;28;20233;-72
2022/08/01 06:36:00;;;;;;;2.97;0.80;;;19.20;30.50;;;;;;5054671;28;20172;-73
2022/08/01 06:38:28;;;;;;;1.80;0.93;;;19.10;31.30;;;;;;5054127;28;20655;-75
2022/08/01 06:40:55;;;;;;;4.73;1.60;;;19.00;31.80;;;;;;5040663;28;20257;-79
2022/08/01 06:43:23;;;;;;;1.17;0.80;;;18.80;32.30;;;;;;5051624;28;20424;-74
2022/08/01 06:45:50;;;;;;;4.50;0.90;;;18.80;32.80;;;;;;5052895;28;20172;-75
2022/08/01 06:48:17;;;;;;;1.10;0.80;;;18.80;33.20;;;;;;5045153;28;20176;-74
2022/08/01 06:50:45;;;;;;;1.87;0.80;;;18.60;33.20;;;;;;5054674;28;20196;-73
2022/08/01 06:53:12;;;;;;;1.27;0.70;;;18.50;34.00;;;;;;5054125;28;20176;-74
2022/08/01 06:55:39;;;;;;;0.90;0.83;;;18.40;33.20;;;;;;5042314;28;20202;-72
2022/08/01 06:58:07;;;;;;;0.90;0.80;;;18.30;33.20;;;;;;5040303;28;20191;-73
2022/08/01 07:00:35;;;;;;;1.90;0.70;;;18.20;33.40;;;;;;5046880;28;20207;-75
2022/08/01 07:03:02;;;;;;;1.43;0.70;;;18.20;34.40;;;;;;5045219;28;20698;-76
2022/08/01 07:05:30;;;;;;;1.53;0.77;;;18.00;34.40;;;;;;5032696;28;20554;-74
2022/08/01 07:07:58;;;;;;;1.17;0.80;;;17.90;34.30;;;;;;5053609;28;20193;-74
2022/08/01 07:10:25;;;;;;;0.80;0.70;;;17.80;34.50;;;;;;5041027;28;20684;-78
2022/08/01 07:12:53;;;;;;;1.10;0.77;;;17.80;33.90;;;;;;5044125;28;20272;-74
2022/08/01 07:15:26;;;;;;;2.23;0.90;;;17.80;34.10;;;;;;5048677;28;20184;-75
2022/08/01 07:17:53;;;;;;;2.07;0.90;;;17.70;34.70;;;;;;5037240;28;20219;-75
2022/08/01 07:20:20;;;;;;;1.87;1.00;;;17.50;35.40;;;;;;5046623;28;20260;-75
2022/08/01 07:22:48;;;;;;;1.17;0.80;;;17.40;35.50;;;;;;5041694;28;20210;-77
2022/08/01 07:25:15;;;;;;;2.27;1.10;;;17.30;36.30;;;;;;5047572;28;20558;-76
2022/08/01 07:27:44;;;;;;;1.13;0.97;;;17.20;36.70;;;;;;5052917;28;20517;-74
2022/08/01 07:30:12;;;;;;;2.03;1.20;;;17.00;37.00;;;;;;5050800;28;20180;-74
2022/08/01 07:32:39;;;;;;;2.20;1.30;;;16.90;37.60;;;;;;5038637;28;20183;-73
2022/08/01 07:35:07;;;;;;;2.00;1.03;;;16.80;38.10;;;;;;5036227;28;20185;-74
2022/08/01 07:37:34;;;;;;;1.47;0.97;;;16.70;38.60;;;;;;5053606;28;20212;-74
2022/08/01 07:40:04;;;;;;;2.30;1.00;;;16.70;38.70;;;;;;5040916;28;20645;-73
2022/08/01 07:42:31;;;;;;;2.87;1.30;;;16.70;39.40;;;;;;5051689;28;20184;-72
2022/08/01 07:44:59;;;;;;;3.10;1.20;;;16.60;39.40;;;;;;5036689;28;20183;-73
2022/08/01 07:47:27;;;;;;;2.47;0.90;;;16.60;39.10;;;;;;5029237;28;20548;-74
2022/08/01 07:50:01;;;;;;;4.87;1.20;;;16.50;39.60;;;;;;5024879;28;20177;-74
2022/08/01 07:52:30;;;;;;;2.97;1.10;;;16.50;40.40;;;;;;5046360;28;20186;-75
2022/08/01 07:54:58;;;;;;;1.73;0.97;;;16.40;40.50;;;;;;5050303;28;20183;-75
2022/08/01 07:57:26;;;;;;;1.60;1.07;;;16.30;40.60;;;;;;5045482;28;20189;-75
2022/08/01 07:59:53;;;;;;;2.33;1.40;;;16.30;40.70;;;;;;5022417;28;20187;-75
2022/08/01 08:02:21;;;;;;;3.70;1.57;;;16.30;40.80;;;;;;5031638;28;20192;-73
2022/08/01 08:04:48;;;;;;;3.03;1.20;;;16.20;40.90;;;;;;5025952;28;20176;-76
2022/08/01 08:07:16;;;;;;;2.43;1.37;;;16.20;41.40;;;;;;5044013;28;20231;-76
2022/08/01 08:09:43;;;;;;;4.90;1.90;;;16.20;40.90;;;;;;5042336;28;20175;-73
2022/08/01 08:12:11;;;;;;;2.23;1.13;;;16.10;41.40;;;;;;5034273;28;20540;-75
2022/08/01 08:14:39;;;;;;;2.80;1.20;;;16.00;41.40;;;;;;5036001;28;20188;-73
2022/08/01 08:17:07;;;;;;;3.30;1.60;;;16.00;41.40;;;;;;5050505;28;20176;-76
2022/08/01 08:19:38;;;;;;;2.33;1.57;;;16.00;41.50;;;;;;5050149;28;20520;-72
2022/08/01 08:22:08;;;;;;;1.97;0.93;;;15.90;42.20;;;;;;5050906;28;20211;-77
2022/08/01 08:24:36;;;;;;;2.50;1.10;;;15.90;42.10;;;;;;5038138;28;20232;-74
2022/08/01 08:27:03;;;;;;;3.00;0.93;;;15.80;42.50;;;;;;5047778;28;20184;-74
2022/08/01 08:29:32;;;;;;;2.07;1.10;;;15.80;42.70;;;;;;5042554;28;20185;-74
2022/08/01 08:32:00;;;;;;;2.93;1.10;;;15.70;43.30;;;;;;5039127;28;20689;-72
2022/08/01 08:34:29;;;;;;;1.40;1.10;;;15.70;43.00;;;;;;5037176;28;20218;-76
2022/08/01 08:36:58;;;;;;;1.87;1.00;;;15.60;43.20;;;;;;5050784;28;20697;-73
2022/08/01 08:39:25;;;;;;;2.93;1.60;;;15.50;43.40;;;;;;5046005;28;20574;-75
2022/08/01 08:41:53;;;;;;;2.50;1.80;;;15.40;43.80;;;;;;5034791;28;20301;-79
2022/08/01 08:44:21;;;;;;;5.50;2.40;;;15.40;44.00;;;;;;5043584;28;20173;-77
2022/08/01 08:46:51;;;;;;;4.53;2.27;;;15.30;44.10;;;;;;5042449;28;20188;-80
2022/08/01 08:49:24;;;;;;;2.37;1.67;;;15.30;44.40;;;;;;5048604;28;20181;-75
2022/08/01 08:51:53;;;;;;;4.17;1.70;;;15.20;44.50;;;;;;5020435;28;20220;-73
2022/08/01 08:54:23;;;;;;;6.00;1.90;;;15.20;44.50;;;;;;5047386;28;20183;-79
2022/08/01 08:56:53;;;;;;;2.00;1.57;;;15.20;45.00;;;;;;5051205;28;20184;-77
2022/08/01 08:59:21;;;;;;;3.13;1.50;;;15.20;44.50;;;;;;5047189;28;20176;-77
2022/08/01 09:01:48;;;;;;;3.73;1.50;;;15.20;44.30;;;;;;5036447;28;20219;-75
2022/08/01 09:04:16;;;;;;;3.87;1.50;;;15.10;44.30;;;;;;5047188;28;20175;-76
2022/08/01 09:06:44;;;;;;;2.17;1.43;;;15.10;44.40;;;;;;5049398;28;20764;-73
2022/08/01 09:09:11;;;;;;;1.80;1.40;;;15.10;44.30;;;;;;5041362;28;20169;-76
2022/08/01 09:11:39;;;;;;;2.60;1.60;;;15.00;44.40;;;;;;5042455;28;20179;-75
2022/08/01 09:14:12;;;;;;;3.20;1.50;;;15.00;45.40;;;;;;5056481;28;20726;-75
2022/08/01 09:16:45;;;;;;;4.50;1.70;;;14.90;45.40;;;;;;5056328;28;20631;-78
2022/08/01 09:19:16;;;;;;;1.70;1.53;;;14.80;46.10;;;;;;5045743;28;20948;-74
2022/08/01 09:22:03;;;;;;;2.43;1.57;;;14.80;45.40;;;;;;5052846;28;20219;-76
2022/08/01 09:24:32;;;;;;;2.93;1.80;;;14.70;46.00;;;;;;5025395;28;20581;-75
2022/08/01 09:27:00;;;;;;;2.07;1.37;;;14.70;45.70;;;;;;5037887;28;20208;-75
2022/08/01 09:29:31;;;;;;;6.03;1.73;;;14.60;46.00;;;;;;5057174;28;20180;-73
2022/08/01 09:31:59;;;;;;;4.47;1.70;;;14.50;46.10;;;;;;5054291;28;20172;-75
2022/08/01 09:34:29;;;;;;;3.80;1.30;;;14.50;46.40;;;;;;5052362;28;20191;-74
2022/08/01 09:36:58;;;;;;;3.53;1.60;;;14.50;45.80;;;;;;5040725;28;20180;-73
2022/08/01 09:39:31;;;;;;;2.63;1.77;;;14.50;46.00;;;;;;5049714;28;20557;-74
2022/08/01 09:42:18;;;;;;;3.53;1.50;;;14.50;46.30;;;;;;5049648;28;20232;-74
2022/08/01 09:44:46;;;;;;;5.47;2.00;;;14.30;46.80;;;;;;5042817;28;20177;-75
2022/08/01 09:47:16;;;;;;;5.00;1.90;;;14.30;47.40;;;;;;5037196;28;20188;-74
2022/08/01 09:49:45;;;;;;;4.17;2.13;;;14.20;47.40;;;;;;5048245;28;20208;-79
2022/08/01 09:52:16;;;;;;;4.40;1.83;;;14.20;47.90;;;;;;5039676;28;20774;-74
2022/08/01 09:54:52;;;;;;;3.30;1.83;;;14.10;47.40;;;;;;5055956;28;20206;-74
2022/08/01 09:57:20;;;;;;;3.70;1.87;;;14.10;47.90;;;;;;5053335;28;20185;-74
2022/08/01 09:59:50;;;;;;;3.70;1.80;;;14.00;48.30;;;;;;5039972;28;20183;-73
2022/08/01 10:02:39;;;;;;;4.23;2.00;;;13.90;48.20;;;;;;5042876;28;20315;-73
2022/08/01 10:05:09;;;;;;;3.93;2.00;;;13.80;48.70;;;;;;5055418;28;20176;-74
2022/08/01 10:07:55;;;;;;;2.13;1.73;;;13.80;49.40;;;;;;5055277;28;20238;-74
2022/08/01 10:10:23;;;;;;;3.73;2.03;;;13.80;50.10;;;;;;5031737;28;20319;-74
2022/08/01 10:12:53;;;;;;;4.20;2.00;;;13.70;49.70;;;;;;5031262;28;20231;-74
2022/08/01 10:15:21;;;;;;;2.93;2.10;;;13.80;49.20;;;;;;5038998;28;20207;-74
2022/08/01 10:17:56;;;;;;;4.23;2.57;;;13.70;49.40;;;;;;5047758;28;20185;-74
2022/08/01 10:20:30;;;;;;;7.30;2.17;;;13.70;49.90;;;;;;5050561;28;20203;-74
2022/08/01 10:23:00;;;;;;;4.90;2.67;;;13.70;49.50;;;;;;5053785;28;20199;-74
2022/08/01 10:25:29;;;;;;;4.00;2.40;;;13.60;49.80;;;;;;5054963;28;20199;-74
2022/08/01 10:27:59;;;;;;;4.30;2.17;;;13.60;49.80;;;;;;5047720;28;20191;-74
2022/08/01 10:30:26;;;;;;;3.73;2.33;;;13.60;50.40;;;;;;5038434;28;20187;-74
2022/08/01 10:32:54;;;;;;;5.93;2.70;;;13.50;50.80;;;;;;5041608;28;20542;-74
2022/08/01 10:35:22;;;;;;;4.47;2.40;;;13.50;50.80;;;;;;5051886;28;20183;-74
2022/08/01 10:37:56;;;;;;;3.67;2.33;;;13.40;51.20;;;;;;5049611;28;20180;-74
2022/08/01 10:40:23;;;;;;;3.90;2.20;;;13.30;51.30;;;;;;5035084;28;20289;-74
2022/08/01 10:42:52;;;;;;;4.23;2.07;;;13.20;52.20;;;;;;5044141;28;20204;-73
2022/08/01 10:45:19;;;;;;;5.67;2.37;;;13.20;52.70;;;;;;5034757;28;20270;-73
2022/08/01 10:48:05;;;;;;;6.23;2.33;;;13.20;52.20;;;;;;5040118;28;20176;-74
2022/08/01 10:50:38;;;;;;;3.53;2.23;;;13.10;52.20;;;;;;5052768;28;20638;-74
2022/08/01 10:53:18;;;;;;;4.20;2.93;;;13.10;51.80;;;;;;5032556;28;20173;-75
2022/08/01 10:55:48;;;;;;;6.93;2.40;;;13.20;52.10;;;;;;5033883;28;20176;-76
2022/08/01 10:58:24;;;;;;;7.17;1.97;;;13.10;51.30;;;;;;5036670;28;20175;-73
2022/08/01 11:01:15;;;;;;;3.97;2.70;;;13.10;51.40;;;;;;5044412;28;20692;-73
2022/08/01 11:03:44;;;;;;;4.53;2.00;;;13.10;51.50;;;;;;5040754;28;20204;-74
2022/08/01 11:06:47;;;;;;;6.70;2.40;;;13.10;51.80;;;;;;5051268;28;20673;-75
2022/08/01 11:09:14;;;;;;;4.90;2.30;;;13.10;51.30;;;;;;5024735;28;20257;-73
2022/08/01 11:12:06;;;;;;;3.57;2.37;;;13.00;51.80;;;;;;5048088;28;20176;-74
2022/08/01 11:14:34;;;;;;;4.43;2.60;;;13.00;51.70;;;;;;5046089;28;20183;-74
2022/08/01 11:17:36;;;;;;;3.53;2.20;;;12.80;52.70;;;;;;5054412;28;20186;-73
2022/08/01 11:20:12;;;;;;;5.13;2.50;;;12.80;53.60;;;;;;5033802;28;20187;-74
2022/08/01 11:25:37;;;;;;;3.00;2.47;;;12.50;54.80;;;;;;5037152;28;20772;-74
2022/08/01 11:28:17;;;;;;;6.07;2.80;;;12.50;54.40;;;;;;5038913;28;20183;-74
2022/08/01 11:30:50;;;;;;;2.97;2.30;;;12.50;54.40;;;;;;5041406;28;20721;-76
2022/08/01 11:33:38;;;;;;;3.50;2.33;;;12.50;54.70;;;;;;5050454;28;20249;-74
2022/08/01 11:36:17;;;;;;;4.47;2.30;;;12.40;55.40;;;;;;5053462;28;20176;-74
2022/08/01 11:39:10;;;;;;;5.70;2.77;;;12.40;55.50;;;;;;5042260;28;20231;-74
2022/08/01 11:41:38;;;;;;;3.73;2.50;;;12.40;55.30;;;;;;5032194;28;20326;-74
2022/08/01 11:44:27;;;;;;;5.40;2.40;;;12.30;56.20;;;;;;5036919;28;20563;-76
2022/08/01 11:47:09;;;;;;;3.00;2.23;;;12.30;55.50;;;;;;5034895;28;20188;-74
2022/08/01 11:49:40;;;;;;;4.13;2.57;;;12.30;55.80;;;;;;5030322;28;20765;-73
2022/08/01 11:52:10;;;;;;;6.23;2.53;;;12.30;55.60;;;;;;5035325;28;20199;-73
2022/08/01 11:54:40;;;;;;;7.07;2.70;;;12.30;56.00;;;;;;5045760;28;20208;-74
2022/08/01 11:57:11;;;;;;;3.73;2.23;;;12.30;55.50;;;;;;5045995;28;20190;-74
2022/08/01 11:59:45;;;;;;;2.87;2.20;;;12.20;55.40;;;;;;5048252;28;20187;-77
2022/08/01 12:02:22;;;;;;;5.30;2.90;;;12.20;55.50;;;;;;5035534;28;20223;-76
2022/08/01 12:04:50;;;;;;;3.13;1.90;;;12.20;55.70;;;;;;5043290;28;20180;-76
2022/08/01 12:07:19;;;;;;;4.50;2.40;;;12.20;55.30;;;;;;5037903;28;20268;-76
2022/08/01 12:09:47;;;;;;;4.37;2.17;;;12.10;56.30;;;;;;5039285;28;20237;-81
2022/08/01 12:12:19;;;;;;;3.90;2.50;;;12.10;56.20;;;;;;5037468;28;20685;-76
2022/08/01 12:14:53;;;;;;;6.73;2.20;;;12.00;56.20;;;;;;5025329;28;20180;-74
2022/08/01 12:17:38;;;;;;;4.80;2.47;;;12.00;56.30;;;;;;5029123;28;20186;-74
2022/08/01 12:20:09;;;;;;;3.47;2.27;;;11.90;57.20;;;;;;5025555;28;20246;-75
2022/08/01 12:22:37;;;;;;;3.00;2.10;;;11.80;58.00;;;;;;5035125;28;20180;-74
2022/08/01 12:25:09;;;;;;;9.83;2.50;;;11.70;58.80;;;;;;5052551;28;20183;-74
2022/08/01 12:27:38;;;;;;;4.20;2.27;;;11.70;59.40;;;;;;5029946;28;20200;-74
2022/08/01 12:30:11;;;;;;;3.90;2.47;;;11.50;60.30;;;;;;5022655;28;20181;-77
2022/08/01 12:32:40;;;;;;;3.50;2.63;;;11.50;61.20;;;;;;5037865;28;20540;-75
2022/08/01 12:35:10;;;;;;;2.87;2.00;;;11.40;61.10;;;;;;5046770;28;20658;-74
2022/08/01 12:37:49;;;;;;;5.80;3.37;;;11.40;61.60;;;;;;5023261;28;20626;-76
2022/08/01 12:40:22;;;;;;;3.60;2.37;;;11.30;61.70;;;;;;5033843;28;20231;-76
2022/08/01 12:42:55;;;;;;;4.53;2.50;;;11.20;61.20;;;;;;5030080;28;20177;-75
2022/08/01 12:45:39;;;;;;;5.50;2.73;;;11.20;61.90;;;;;;5052512;28;20637;-73
2022/08/01 12:48:15;;;;;;;5.67;2.67;;;11.10;61.80;;;;;;5032086;28;20182;-74
2022/08/01 12:50:45;;;;;;;3.90;2.63;;;11.00;62.60;;;;;;5028928;28;20263;-74
2022/08/01 12:53:18;;;;;;;5.03;3.00;;;10.90;63.10;;;;;;5031883;28;20177;-75
2022/08/01 12:55:47;;;;;;;3.20;2.37;;;11.00;63.90;;;;;;5051916;28;20633;-74
2022/08/01 12:58:16;;;;;;;6.17;3.27;;;10.90;64.20;;;;;;5052531;28;20190;-75
2022/08/01 13:00:47;;;;;;;5.67;2.83;;;10.80;64.40;;;;;;5050764;28;20199;-76
2022/08/01 13:03:19;;;;;;;5.87;2.70;;;10.80;64.60;;;;;;5046817;28;20183;-76
2022/08/01 13:05:51;;;;;;;3.93;2.60;;;10.70;64.80;;;;;;5033711;28;20191;-77
2022/08/01 13:08:46;;;;;;;5.60;2.60;;;10.70;64.90;;;;;;5021898;28;20209;-75
2022/08/01 13:11:15;;;;;;;5.47;2.33;;;10.70;65.30;;;;;;5045382;28;20743;-80